createdAt,value
2022-08-18T00:02:01.187Z,3.08
2022-08-18T00:04:35.424Z,2.40
2022-08-18T00:07:02.884Z,2.20
2022-08-18T00:09:32.519Z,1.90
2022-08-18T00:12:03.129Z,3.03
2022-08-18T00:14:30.210Z,1.90
2022-08-18T00:16:57.065Z,2.00
2022-08-18T00:19:45.368Z,1.50
2022-08-18T00:22:15.012Z,1.85
2022-08-18T00:24:48.848Z,2.00
2022-08-18T00:27:23.394Z,2.08
2022-08-18T00:29:52.678Z,1.80
2022-08-18T00:32:26.807Z,1.92
2022-08-18T00:34:54.614Z,1.70
2022-08-18T00:37:22.988Z,1.52
2022-08-18T00:39:53.824Z,1.30
2022-08-18T00:42:30.812Z,1.50
2022-08-18T00:45:03.588Z,1.75
2022-08-18T00:47:41.459Z,1.48
2022-08-18T00:50:49.504Z,1.50
2022-08-18T00:53:45.720Z,1.30
2022-08-18T00:56:18.817Z,1.40
2022-08-18T00:58:54.675Z,1.27
2022-08-18T01:01:23.870Z,1.55
2022-08-18T01:03:56.587Z,1.30
2022-08-18T01:06:29.029Z,1.40
2022-08-18T01:08:56.238Z,1.23
2022-08-18T01:11:22.864Z,1.30
2022-08-18T01:13:49.683Z,1.42
2022-08-18T01:16:40.872Z,2.65
2022-08-18T01:19:44.784Z,1.23
2022-08-18T01:22:19.219Z,1.33
2022-08-18T01:27:32.166Z,1.65
2022-08-18T01:30:10.469Z,1.27
2022-08-18T01:32:39.512Z,1.50
2022-08-18T01:35:10.704Z,1.40
2022-08-18T01:37:37.772Z,1.35
2022-08-18T01:41:21.187Z,1.75
2022-08-18T01:42:54.086Z,1.58
2022-08-18T01:45:20.802Z,1.50
2022-08-18T01:47:48.711Z,1.80
2022-08-18T01:50:17.542Z,1.45
2022-08-18T01:52:44.361Z,1.90
2022-08-18T01:55:11.292Z,1.73
2022-08-18T01:57:43.108Z,1.65
2022-08-18T02:00:17.192Z,1.83
2022-08-18T02:02:44.140Z,1.80
2022-08-18T02:05:16.269Z,2.10
2022-08-18T02:07:42.882Z,1.73
2022-08-18T02:10:12.476Z,2.15
2022-08-18T02:12:43.506Z,1.63
2022-08-18T02:15:11.643Z,1.67
2022-08-18T02:17:40.414Z,1.95
2022-08-18T02:20:09.009Z,2.00
2022-08-18T02:22:36.672Z,2.40
2022-08-18T02:25:04.098Z,1.90
2022-08-18T02:27:35.773Z,3.35
2022-08-18T02:30:05.636Z,2.22
2022-08-18T02:32:33.239Z,2.25
2022-08-18T02:35:00.631Z,2.10
2022-08-18T02:37:27.413Z,2.83
2022-08-18T02:39:54.069Z,2.67
2022-08-18T02:42:21.734Z,2.20
2022-08-18T02:44:48.559Z,1.90
2022-08-18T02:47:15.354Z,2.60
2022-08-18T02:49:42.011Z,2.47
2022-08-18T02:52:09.345Z,2.72
2022-08-18T02:54:36.678Z,2.50
2022-08-18T02:57:10.960Z,2.67
2022-08-18T02:59:40.207Z,3.00
2022-08-18T03:02:09.534Z,2.28
2022-08-18T03:04:36.670Z,3.05
2022-08-18T03:07:06.207Z,2.97
2022-08-18T03:09:34.710Z,3.03
2022-08-18T03:12:02.013Z,3.70
2022-08-18T03:14:29.652Z,2.45
2022-08-18T03:16:56.724Z,3.33
2022-08-18T03:19:25.601Z,2.90
2022-08-18T03:21:52.857Z,2.85
2022-08-18T03:24:22.882Z,3.30
2022-08-18T03:26:52.191Z,2.97
2022-08-18T03:29:19.897Z,2.40
2022-08-18T03:31:49.020Z,2.90
2022-08-18T03:34:19.991Z,3.00
2022-08-18T03:36:47.822Z,2.42
2022-08-18T03:39:14.829Z,2.90
2022-08-18T03:41:58.798Z,3.03
2022-08-18T03:44:30.833Z,2.78
2022-08-18T03:46:58.418Z,2.95
2022-08-18T03:49:26.113Z,2.78
2022-08-18T03:51:52.813Z,3.05
2022-08-18T03:54:19.579Z,2.40
2022-08-18T03:56:47.707Z,2.42
2022-08-18T03:59:19.267Z,2.70
2022-08-18T04:01:48.805Z,2.30
2022-08-18T04:04:19.309Z,2.70
2022-08-18T04:07:00.824Z,2.50
2022-08-18T04:09:30.985Z,2.78
2022-08-18T04:11:59.217Z,2.67
2022-08-18T04:14:31.985Z,2.30
2022-08-18T04:16:59.385Z,3.75
2022-08-18T04:19:27.825Z,2.00
2022-08-18T04:21:57.622Z,2.58
2022-08-18T04:24:28.233Z,2.40
2022-08-18T04:27:00.281Z,2.30
2022-08-18T04:29:27.264Z,2.42
2022-08-18T04:31:54.340Z,2.58
2022-08-18T04:34:22.913Z,2.47
2022-08-18T04:36:54.414Z,2.05
2022-08-18T04:39:22.296Z,2.15
2022-08-18T04:41:50.150Z,2.58
2022-08-18T04:44:18.249Z,2.22
2022-08-18T04:46:51.993Z,1.98
2022-08-18T04:49:21.039Z,1.98
2022-08-18T04:52:22.662Z,2.22
2022-08-18T04:54:57.523Z,2.33
2022-08-18T04:57:25.249Z,1.88
2022-08-18T04:59:54.092Z,2.00
2022-08-18T05:02:24.344Z,2.30
2022-08-18T05:04:51.474Z,1.73
2022-08-18T05:07:22.817Z,2.83
2022-08-18T05:09:49.844Z,2.13
2022-08-18T05:12:16.900Z,1.90
2022-08-18T05:14:47.842Z,1.67
2022-08-18T05:17:16.409Z,2.22
2022-08-18T05:19:49.842Z,1.77
2022-08-18T05:22:19.706Z,2.47
2022-08-18T05:24:57.457Z,1.95
2022-08-18T05:27:26.760Z,2.38
2022-08-18T05:29:55.817Z,2.28
2022-08-18T05:32:37.077Z,2.22
2022-08-18T05:35:18.399Z,2.20
2022-08-18T05:38:22.709Z,2.63
2022-08-18T05:41:07.280Z,2.08
2022-08-18T05:43:35.251Z,2.17
2022-08-18T05:46:09.857Z,2.03
2022-08-18T05:48:42.690Z,2.03
2022-08-18T05:51:23.475Z,2.20
2022-08-18T05:54:11.056Z,1.83
2022-08-18T05:56:49.264Z,2.25
2022-08-18T05:59:32.751Z,2.33
2022-08-18T06:02:10.776Z,2.30
2022-08-18T06:04:41.701Z,1.98
2022-08-18T06:07:13.661Z,2.33
2022-08-18T06:09:53.220Z,2.70
2022-08-18T06:12:47.098Z,2.53
2022-08-18T06:15:46.189Z,2.85
2022-08-18T06:18:25.433Z,2.38
2022-08-18T06:21:20.067Z,2.55
2022-08-18T06:23:49.616Z,2.70
2022-08-18T06:26:34.529Z,3.15
2022-08-18T06:29:25.140Z,3.35
2022-08-18T06:32:20.961Z,2.72
2022-08-18T06:35:13.539Z,3.58
2022-08-18T06:38:22.420Z,3.95
2022-08-18T06:40:50.294Z,3.22
2022-08-18T06:43:17.414Z,3.20
2022-08-18T06:45:51.937Z,3.33
2022-08-18T06:48:40.385Z,3.22
2022-08-18T06:51:08.763Z,2.97
2022-08-18T06:53:59.194Z,3.65
2022-08-18T06:56:41.057Z,3.22
2022-08-18T06:59:33.527Z,3.08
2022-08-18T07:02:24.273Z,3.25
2022-08-18T07:05:08.137Z,2.97
2022-08-18T07:07:39.579Z,2.77
2022-08-18T07:10:35.193Z,3.28
2022-08-18T07:13:26.645Z,3.45
2022-08-18T07:15:56.641Z,2.65
2022-08-18T07:18:29.019Z,2.90
2022-08-18T07:20:59.044Z,3.08
2022-08-18T07:23:38.940Z,3.00
2022-08-18T07:26:10.743Z,2.85
2022-08-18T07:28:44.496Z,2.85
2022-08-18T07:31:20.161Z,2.88
2022-08-18T07:33:56.993Z,3.10
2022-08-18T07:36:29.527Z,2.42
2022-08-18T07:39:06.174Z,3.03
2022-08-18T07:41:49.324Z,3.15
2022-08-18T07:44:33.906Z,2.80
2022-08-18T07:47:05.037Z,2.83
2022-08-18T07:49:36.572Z,2.45
2022-08-18T07:52:36.252Z,3.40
2022-08-18T07:55:33.277Z,2.55
2022-08-18T07:58:23.181Z,2.60
2022-08-18T08:01:10.400Z,2.60
2022-08-18T08:03:58.871Z,2.63
2022-08-18T08:06:31.551Z,2.80
2022-08-18T08:09:20.912Z,2.63
2022-08-18T08:11:56.525Z,2.55
2022-08-18T08:14:36.191Z,2.72
2022-08-18T08:17:02.742Z,2.38
2022-08-18T08:20:03.035Z,2.63
2022-08-18T08:22:38.705Z,2.80
2022-08-18T08:25:22.729Z,2.70
2022-08-18T08:28:09.870Z,2.55
2022-08-18T08:30:46.710Z,3.05
2022-08-18T08:33:24.969Z,2.88
2022-08-18T08:35:58.906Z,3.10
2022-08-18T08:38:42.752Z,2.85
2022-08-18T08:41:32.951Z,2.55
2022-08-18T08:44:18.720Z,2.25
2022-08-18T08:47:00.415Z,2.97
2022-08-18T08:49:39.902Z,2.60
2022-08-18T08:52:24.309Z,2.60
2022-08-18T08:54:58.740Z,2.50
2022-08-18T08:59:58.625Z,3.00
2022-08-18T09:02:48.371Z,3.33
2022-08-18T09:05:23.920Z,2.25
2022-08-18T09:08:07.160Z,2.20
2022-08-18T09:11:05.270Z,2.65
2022-08-18T09:13:55.950Z,2.30
2022-08-18T09:16:27.826Z,2.63
2022-08-18T09:19:14.003Z,2.53
2022-08-18T09:21:58.876Z,2.95
2022-08-18T09:24:32.365Z,2.40
2022-08-18T09:27:23.560Z,2.80
2022-08-18T09:29:50.186Z,3.20
2022-08-18T09:32:20.131Z,3.15
2022-08-18T09:35:11.563Z,2.83
2022-08-18T09:38:13.169Z,3.13
2022-08-18T09:41:11.243Z,2.60
2022-08-18T09:44:21.351Z,4.32
2022-08-18T09:46:55.850Z,2.97
2022-08-18T09:49:22.619Z,2.97
2022-08-18T09:52:00.792Z,2.97
2022-08-18T09:54:32.365Z,3.13
2022-08-18T09:57:24.551Z,3.75
2022-08-18T10:00:01.772Z,2.80
2022-08-18T10:02:37.440Z,3.25
2022-08-18T10:05:16.885Z,3.58
2022-08-18T10:08:21.340Z,2.67
2022-08-18T10:11:09.240Z,3.45
2022-08-18T10:13:51.037Z,3.25
2022-08-18T10:17:15.948Z,3.03
2022-08-18T10:19:50.405Z,3.22
2022-08-18T10:22:40.005Z,3.20
2022-08-18T10:25:22.540Z,2.80
2022-08-18T10:27:58.185Z,2.53
2022-08-18T10:30:57.257Z,2.60
2022-08-18T10:34:17.178Z,2.72
2022-08-18T10:36:58.929Z,3.28
2022-08-18T10:39:53.073Z,3.03
2022-08-18T10:42:30.878Z,2.72
2022-08-18T10:45:10.124Z,3.17
2022-08-18T10:47:37.831Z,3.15
2022-08-18T10:50:18.408Z,3.05
2022-08-18T10:53:24.361Z,3.70
2022-08-18T10:59:18.018Z,3.03
2022-08-18T11:01:46.084Z,2.97
2022-08-18T11:04:33.579Z,2.97
2022-08-18T11:07:11.650Z,2.83
2022-08-18T11:09:41.899Z,2.83
2022-08-18T11:12:12.675Z,2.97
2022-08-18T11:14:50.166Z,2.80
2022-08-18T11:17:30.344Z,2.70
2022-08-18T11:19:58.797Z,3.25
2022-08-18T11:22:31.630Z,3.20
2022-08-18T11:25:37.303Z,2.75
2022-08-18T11:28:30.154Z,2.88
2022-08-18T11:30:59.484Z,2.85
2022-08-18T11:33:27.816Z,3.22
2022-08-18T11:36:01.397Z,3.50
2022-08-18T11:38:29.708Z,4.05
2022-08-18T11:41:14.326Z,2.95
2022-08-18T11:43:46.782Z,3.05
2022-08-18T11:46:38.487Z,3.70
2022-08-18T11:49:26.494Z,3.83
2022-08-18T11:52:15.464Z,2.92
2022-08-18T11:54:54.086Z,3.65
2022-08-18T11:57:46.373Z,3.05
2022-08-18T12:00:43.035Z,3.30
2022-08-18T12:03:19.442Z,3.40
2022-08-18T12:05:56.628Z,3.42
2022-08-18T12:08:57.232Z,3.53
2022-08-18T12:11:41.354Z,3.08
2022-08-18T12:14:32.667Z,3.75
2022-08-18T12:17:02.181Z,3.15
2022-08-18T12:19:31.315Z,3.47
2022-08-18T12:22:03.881Z,3.60
2022-08-18T12:24:39.441Z,3.53
2022-08-18T12:27:20.705Z,3.45
2022-08-18T12:29:49.383Z,3.47
2022-08-18T12:32:17.969Z,3.20
2022-08-18T12:35:08.981Z,3.47
2022-08-18T12:40:26.575Z,3.45
2022-08-18T12:42:55.607Z,3.00
2022-08-18T12:45:24.768Z,3.53
2022-08-18T12:47:52.696Z,3.40
2022-08-18T12:50:19.902Z,3.45
2022-08-18T12:52:47.001Z,3.45
2022-08-18T12:55:21.570Z,3.50
2022-08-18T12:57:52.538Z,3.92
2022-08-18T13:00:28.827Z,3.33
2022-08-18T13:02:57.436Z,3.30
2022-08-18T13:05:27.693Z,3.40
2022-08-18T13:08:04.564Z,3.25
2022-08-18T13:10:43.079Z,3.40
2022-08-18T13:13:14.689Z,3.78
2022-08-18T13:15:44.307Z,4.18
2022-08-18T13:18:27.393Z,3.63
2022-08-18T13:20:58.507Z,3.60
2022-08-18T13:23:27.256Z,4.10
2022-08-18T13:25:59.388Z,3.25
2022-08-18T13:28:33.557Z,3.95
2022-08-18T13:31:05.461Z,3.67
2022-08-18T13:33:35.147Z,3.85
2022-08-18T13:36:20.520Z,3.78
2022-08-18T13:38:54.701Z,4.28
2022-08-18T13:43:52.365Z,3.47
2022-08-18T13:46:30.035Z,4.18
2022-08-18T13:49:02.956Z,3.85
2022-08-18T13:51:29.926Z,3.60
2022-08-18T13:54:17.852Z,3.53
2022-08-18T13:56:51.312Z,3.30
2022-08-18T13:59:22.435Z,3.80
2022-08-18T14:01:53.140Z,3.13
2022-08-18T14:04:22.469Z,4.38
2022-08-18T14:06:57.000Z,3.67
2022-08-18T14:09:36.507Z,4.43
2022-08-18T14:12:22.544Z,3.65
2022-08-18T14:14:55.103Z,3.50
2022-08-18T14:17:24.344Z,3.50
2022-08-18T14:20:14.841Z,3.67
2022-08-18T14:23:01.310Z,3.47
2022-08-18T14:25:46.857Z,4.40
2022-08-18T14:28:18.732Z,3.90
2022-08-18T14:30:54.409Z,3.15
2022-08-18T14:33:34.501Z,3.00
2022-08-18T14:36:13.403Z,2.95
2022-08-18T14:38:40.856Z,3.15
2022-08-18T14:41:10.661Z,3.20
2022-08-18T14:44:10.301Z,3.45
2022-08-18T14:46:30.212Z,3.38
2022-08-18T14:48:59.477Z,3.00
2022-08-18T14:51:27.288Z,3.60
2022-08-18T14:53:54.481Z,3.33
2022-08-18T14:56:22.595Z,3.38
2022-08-18T14:58:57.239Z,3.55
2022-08-18T15:01:24.741Z,4.35
2022-08-18T15:03:55.054Z,3.40
2022-08-18T15:06:23.055Z,3.30
2022-08-18T15:08:54.775Z,3.40
2022-08-18T15:11:24.382Z,2.95
2022-08-18T15:13:51.677Z,3.53
2022-08-18T15:16:31.592Z,3.55
2022-08-18T15:18:59.172Z,3.47
2022-08-18T15:21:45.157Z,3.78
2022-08-18T15:24:31.080Z,4.53
2022-08-18T15:27:05.699Z,3.53
2022-08-18T15:32:02.158Z,4.28
2022-08-18T15:34:33.382Z,3.80
2022-08-18T15:37:15.356Z,3.55
2022-08-18T15:39:42.161Z,4.15
2022-08-18T15:42:11.415Z,3.90
2022-08-18T15:44:38.438Z,3.50
2022-08-18T15:47:05.453Z,3.65
2022-08-18T15:49:36.417Z,4.55
2022-08-18T15:52:03.412Z,3.65
2022-08-18T15:54:30.293Z,4.00
2022-08-18T15:56:58.888Z,3.88
2022-08-18T15:59:34.245Z,4.57
2022-08-18T16:02:11.539Z,4.25
2022-08-18T16:04:43.159Z,4.32
2022-08-18T16:07:12.166Z,5.15
2022-08-18T16:09:38.987Z,4.22
2022-08-18T16:12:08.757Z,3.80
2022-08-18T16:14:41.441Z,3.97
2022-08-18T16:17:09.473Z,3.95
2022-08-18T16:19:45.157Z,3.85
2022-08-18T16:22:13.421Z,4.38
2022-08-18T16:24:40.338Z,4.13
2022-08-18T16:27:08.983Z,4.25
2022-08-18T16:29:36.770Z,4.30
2022-08-18T16:32:03.774Z,4.50
2022-08-18T16:34:32.336Z,4.63
2022-08-18T16:36:59.344Z,4.28
2022-08-18T16:39:26.196Z,4.13
2022-08-18T16:41:53.032Z,4.03
2022-08-18T16:44:19.827Z,3.97
2022-08-18T16:46:46.825Z,4.22
2022-08-18T16:49:13.533Z,4.50
2022-08-18T16:51:41.164Z,4.68
2022-08-18T16:54:07.812Z,4.35
2022-08-18T16:56:36.068Z,4.40
2022-08-18T16:59:23.258Z,4.53
2022-08-18T17:02:10.793Z,4.30
2022-08-18T17:04:37.640Z,4.40
2022-08-18T17:07:05.770Z,5.22
2022-08-18T17:09:33.948Z,4.15
2022-08-18T17:12:01.328Z,4.43
2022-08-18T17:14:30.315Z,4.72
2022-08-18T17:16:58.620Z,4.80
2022-08-18T17:19:29.313Z,4.50
2022-08-18T17:21:56.557Z,4.03
2022-08-18T17:24:32.151Z,4.65
2022-08-18T17:27:26.951Z,4.65
2022-08-18T17:30:04.181Z,4.32
2022-08-18T17:33:00.573Z,4.82
2022-08-18T17:35:35.177Z,4.70
2022-08-18T17:38:15.452Z,4.30
2022-08-18T17:40:51.472Z,4.70
2022-08-18T17:43:24.435Z,4.70
2022-08-18T17:45:59.035Z,4.28
2022-08-18T17:48:32.443Z,5.45
2022-08-18T17:51:21.987Z,4.18
2022-08-18T17:53:48.775Z,5.30
2022-08-18T17:56:15.600Z,4.90
2022-08-18T17:58:56.685Z,4.68
2022-08-18T18:01:27.036Z,4.88
2022-08-18T18:03:54.781Z,4.95
2022-08-18T18:06:33.954Z,4.45
2022-08-18T18:09:33.536Z,4.45
2022-08-18T18:12:21.624Z,5.13
2022-08-18T18:14:48.451Z,4.57
2022-08-18T18:17:19.320Z,4.78
2022-08-18T18:19:49.312Z,4.50
2022-08-18T18:22:25.970Z,4.70
2022-08-18T18:24:54.821Z,4.53
2022-08-18T18:27:28.676Z,4.03
2022-08-18T18:30:02.808Z,4.70
2022-08-18T18:32:32.745Z,4.78
2022-08-18T18:35:27.580Z,4.60
2022-08-18T18:40:26.293Z,4.30
2022-08-18T18:42:54.057Z,4.07
2022-08-18T18:45:31.095Z,4.63
2022-08-18T18:48:45.036Z,3.92
2022-08-18T18:51:10.817Z,3.70
2022-08-18T18:54:09.867Z,3.47
2022-08-18T18:56:45.887Z,4.07
2022-08-18T18:59:49.490Z,3.28
2022-08-18T19:02:45.449Z,3.63
2022-08-18T19:05:27.309Z,3.30
2022-08-18T19:08:08.190Z,3.60
2022-08-18T19:10:56.207Z,2.88
2022-08-18T19:13:54.319Z,3.47
2022-08-18T19:16:38.594Z,2.70
2022-08-18T19:19:37.161Z,2.60
2022-08-18T19:22:35.062Z,3.13
2022-08-18T19:25:15.912Z,3.17
2022-08-18T19:28:18.303Z,2.42
2022-08-18T19:30:49.180Z,3.08
2022-08-18T19:33:25.963Z,2.80
2022-08-18T19:35:58.712Z,2.50
2022-08-18T19:38:35.602Z,2.92
2022-08-18T19:41:04.140Z,2.58
2022-08-18T19:44:31.731Z,2.22
2022-08-18T19:47:09.133Z,2.67
2022-08-18T19:49:55.970Z,2.20
2022-08-18T19:52:46.404Z,2.47
2022-08-18T19:55:33.485Z,1.77
2022-08-18T19:58:18.918Z,1.90
2022-08-18T20:01:05.013Z,2.33
2022-08-18T20:03:47.386Z,2.22
2022-08-18T20:06:35.450Z,2.03
2022-08-18T20:09:19.464Z,2.40
2022-08-18T20:12:21.589Z,2.05
2022-08-18T20:15:08.592Z,2.35
2022-08-18T20:17:57.736Z,2.60
2022-08-18T20:20:41.267Z,2.42
2022-08-18T20:23:34.252Z,2.85
2022-08-18T20:26:01.215Z,2.88
2022-08-18T20:28:40.021Z,2.60
2022-08-18T20:31:16.725Z,3.05
2022-08-18T20:34:13.996Z,3.15
2022-08-18T20:36:43.719Z,2.90
2022-08-18T20:39:46.268Z,3.10
2022-08-18T20:42:23.068Z,2.97
2022-08-18T20:44:52.392Z,3.15
2022-08-18T20:47:37.824Z,3.40
2022-08-18T20:50:33.965Z,3.38
2022-08-18T20:53:21.712Z,3.50
2022-08-18T20:55:59.756Z,4.10
2022-08-18T20:58:33.370Z,4.22
2022-08-18T21:01:01.895Z,3.20
2022-08-18T21:03:45.565Z,4.25
2022-08-18T21:06:15.773Z,4.40
2022-08-18T21:09:00.184Z,3.80
2022-08-18T21:11:40.740Z,3.70
2022-08-18T21:14:07.939Z,4.05
2022-08-18T21:16:54.973Z,5.15
2022-08-18T21:19:28.026Z,4.18
2022-08-18T21:22:00.938Z,4.50
2022-08-18T21:24:33.279Z,4.50
2022-08-18T21:27:10.712Z,4.65
2022-08-18T21:29:46.928Z,4.78
2022-08-18T21:32:22.945Z,4.82
2022-08-18T21:34:50.137Z,4.73
2022-08-18T21:37:19.145Z,5.32
2022-08-18T21:39:51.072Z,4.93
2022-08-18T21:42:48.923Z,4.78
2022-08-18T21:45:25.700Z,5.93
2022-08-18T21:48:04.738Z,5.32
2022-08-18T21:50:35.075Z,5.60
2022-08-18T21:53:18.569Z,5.45
2022-08-18T21:55:49.214Z,5.90
2022-08-18T21:58:17.815Z,6.10
2022-08-18T22:01:05.615Z,6.22
2022-08-18T22:03:34.662Z,7.30
2022-08-18T22:06:27.046Z,6.47
2022-08-18T22:09:22.466Z,6.78
2022-08-18T22:12:08.449Z,5.85
2022-08-18T22:14:55.285Z,6.43
2022-08-18T22:17:32.020Z,6.78
2022-08-18T22:20:45.611Z,7.60
2022-08-18T22:23:31.207Z,7.00
2022-08-18T22:26:22.088Z,7.22
2022-08-18T22:28:58.162Z,7.80
2022-08-18T22:31:29.324Z,8.05
2022-08-18T22:33:59.819Z,7.97
2022-08-18T22:36:29.685Z,7.93
2022-08-18T22:38:56.633Z,7.47
2022-08-18T22:41:23.958Z,6.97
2022-08-18T22:43:54.655Z,8.07
2022-08-18T22:46:24.252Z,7.03
2022-08-18T22:48:52.514Z,7.75
2022-08-18T22:51:24.235Z,7.63
2022-08-18T22:53:51.290Z,7.20
2022-08-18T22:56:22.758Z,8.23
2022-08-18T22:59:05.916Z,7.80
2022-08-18T23:01:45.677Z,7.22
2022-08-18T23:04:20.336Z,6.78
2022-08-18T23:06:52.294Z,6.70
2022-08-18T23:09:29.807Z,6.97
2022-08-18T23:11:59.942Z,7.68
2022-08-18T23:14:27.064Z,6.93
2022-08-18T23:16:57.272Z,6.50
2022-08-18T23:19:24.008Z,6.03
2022-08-18T23:21:52.080Z,7.18
2022-08-18T23:24:20.370Z,6.22
2022-08-18T23:26:47.634Z,6.88
2022-08-18T23:29:14.922Z,7.07
2022-08-18T23:31:44.583Z,7.13
2022-08-18T23:34:13.937Z,7.28
2022-08-18T23:36:45.251Z,7.25
2022-08-18T23:39:13.771Z,6.68
2022-08-18T23:41:40.757Z,7.45
2022-08-18T23:44:07.707Z,6.35
2022-08-18T23:46:35.187Z,6.90
2022-08-18T23:49:04.728Z,6.53
2022-08-18T23:51:44.658Z,6.80
2022-08-18T23:54:17.183Z,7.15
2022-08-18T23:56:45.053Z,6.78
2022-08-18T23:59:13.375Z,6.82
